首页
METAR-TAF:

METAR-TAF

机场 :

諾福克國際機場

諾福克, 弗吉尼亚州, 美国

纬度: 36-54-13N, 经度: 076-11-31W, 海拔: 8米

当前天气观测

该预报发布于26分钟前的13:51 UTC
风速6节,风向
温度 24°C
湿度 89%
气压 1017 hPa
能見度: 16.1公里
天空无云

METAR: KORF 201351Z 17006KT 10SM CLR 24/22 A3003 RMK AO2 SLP167 T02390222

时间: 10:17 (14:17 UTC)

预报

该预报发布于1小时和2分钟前的13:15 UTC
预报有效从20日的 13点(UTC)到 21日的 12点(UTC)
风速5节,风向
能見度: 10公里
多云层高于1000英尺
短暂存在
从 20日的 13点(UTC)到 20日的 15点(UTC)
散云层高于1000英尺
多云层高于25000英尺
从 20日的 1500点(UTC)
风速6节,风向东转东南
能見度: 10公里
多云层高于3000英尺
附近有阵雨
从 20日的 1800点(UTC)
风速8节,风向东北
能見度: 10公里
多云层高于5000英尺
附近有阵雨
从 21日的 0000点(UTC)
风速6节,风向东转东北
能見度: 10公里
多云层高于7000英尺
从 21日的 0900点(UTC)
风速2节,风向多变
能見度: 8.0公里
多云层高于2500英尺
轻雾

TAF: KORF 201315Z 2013/2112 17005KT P6SM BKN010 TEMPO 2013/2015 SCT010 BKN250 FM201500 12006KT P6SM VCSH BKN030 FM201800 05008KT P6SM VCSH BKN050 FM210000 07006KT P6SM BKN070 FM210900 VRB02KT 5SM BR BKN025

超过4000个机场的气象观测和天气预报(METAR&TAF报告)。

可查询的气象台以黄色和红色小点在地图上表示。

将鼠标移到小点上方,可查看气象台名称。

然后点击查看天气观测和预报。

如需切换地图:点击带黑十字的绿色按钮放大地图;点击带横线的绿色按钮缩小地图;或者点击绿色箭头查看邻近地区的地图。


METAR-TAF: